Time;durP1;ratioP1;P1;durP2;ratioP2;P2;SDS_P1;SDS_P2;PMS_P1;PMS_P2;Temp;Humidity;BMP_temperature;BMP_pressure;BME280_temperature;BME280_humidity;BME280_pressure;Samples;Min_cycle;Max_cycle;Signal;HPM_P1;HPM_P2
2022/07/20 00:00:03;;;;;;;5.50;2.72;;;26.70;99.90;;;;;;1977199;71;21256;-81
2022/07/20 00:02:34;;;;;;;5.67;2.70;;;26.70;99.90;;;;;;1978288;71;21189;-83
2022/07/20 00:05:06;;;;;;;6.25;2.80;;;26.80;99.90;;;;;;1988290;71;21950;-82
2022/07/20 00:07:37;;;;;;;5.40;2.92;;;26.80;99.90;;;;;;1982881;71;21189;-81
2022/07/20 00:12:41;;;;;;;7.08;3.15;;;26.80;99.90;;;;;;1977604;71;21088;-82
2022/07/20 00:15:12;;;;;;;8.30;5.37;;;26.90;99.90;;;;;;1980054;71;21654;-81
2022/07/20 00:17:43;;;;;;;12.18;6.10;;;26.90;99.90;;;;;;1977287;71;21140;-81
2022/07/20 00:20:14;;;;;;;6.37;2.92;;;26.90;99.90;;;;;;1976597;71;21146;-81
2022/07/20 00:22:45;;;;;;;5.87;2.33;;;26.90;99.90;;;;;;1979232;71;21155;-80
2022/07/20 00:25:16;;;;;;;5.97;2.83;;;27.00;99.90;;;;;;1982228;71;21587;-81
2022/07/20 00:27:47;;;;;;;4.75;2.40;;;26.90;99.90;;;;;;1976768;71;21531;-81
2022/07/20 00:30:18;;;;;;;5.03;2.70;;;27.00;99.90;;;;;;1977910;71;21156;-82
2022/07/20 00:32:49;;;;;;;7.47;2.90;;;27.00;99.90;;;;;;1989934;70;21579;-81
2022/07/20 00:35:20;;;;;;;5.12;2.72;;;27.00;99.90;;;;;;1985723;71;21752;-81
2022/07/20 00:37:51;;;;;;;5.25;2.85;;;27.00;99.90;;;;;;1979387;71;21114;-80
2022/07/20 00:40:22;;;;;;;5.37;2.67;;;27.00;99.90;;;;;;1981080;71;21202;-82
2022/07/20 00:42:53;;;;;;;5.40;2.92;;;27.10;99.90;;;;;;1985697;71;21150;-81
2022/07/20 00:45:24;;;;;;;4.00;2.83;;;27.10;99.90;;;;;;1979146;71;21233;-81
2022/07/20 00:47:54;;;;;;;5.22;3.10;;;27.10;99.90;;;;;;1988042;71;21033;-82
2022/07/20 00:50:26;;;;;;;6.40;2.85;;;27.10;99.90;;;;;;1987726;71;21100;-81
2022/07/20 00:52:58;;;;;;;7.10;3.00;;;27.00;99.90;;;;;;1978332;71;21177;-81
2022/07/20 00:55:29;;;;;;;5.22;2.47;;;27.10;99.90;;;;;;1981075;71;21053;-80
2022/07/20 00:58:00;;;;;;;4.80;2.85;;;27.00;99.90;;;;;;1981808;71;21107;-80
2022/07/20 01:00:31;;;;;;;7.35;3.10;;;27.00;99.90;;;;;;1979875;70;21192;-82
2022/07/20 01:03:01;;;;;;;6.22;3.40;;;27.10;99.90;;;;;;1971503;71;21047;-81
2022/07/20 01:05:32;;;;;;;6.62;3.15;;;27.10;99.90;;;;;;1977726;71;21209;-80
2022/07/20 01:08:04;;;;;;;8.75;3.20;;;27.10;99.90;;;;;;1983280;71;21847;-81
2022/07/20 01:10:41;;;;;;;9.50;4.30;;;27.10;99.90;;;;;;1981945;71;21865;-81
2022/07/20 01:13:16;;;;;;;6.25;2.20;;;27.20;99.90;;;;;;1984839;70;21147;-80
2022/07/20 01:15:47;;;;;;;6.67;2.77;;;27.20;99.90;;;;;;1974616;71;21140;-81
2022/07/20 01:18:22;;;;;;;4.05;2.25;;;27.20;99.90;;;;;;1985139;71;21260;-83
2022/07/20 01:21:02;;;;;;;5.78;2.30;;;27.20;99.90;;;;;;1963952;71;21048;-81
2022/07/20 01:24:03;;;;;;;14.75;2.80;;;27.20;99.90;;;;;;1980045;71;21270;-80
2022/07/20 01:26:21;;;;;;;6.28;2.60;;;27.20;99.90;;;;;;1981180;70;21245;-81
2022/07/20 01:28:52;;;;;;;5.92;3.30;;;27.20;99.90;;;;;;1976720;71;21112;-81
2022/07/20 01:31:33;;;;;;;6.42;2.90;;;27.20;99.90;;;;;;1983052;71;21646;-82
2022/07/20 01:34:04;;;;;;;7.12;3.40;;;27.20;99.90;;;;;;1987885;71;21088;-81
2022/07/20 01:36:35;;;;;;;6.40;3.17;;;27.20;99.90;;;;;;1977847;71;21161;-81
2022/07/20 01:39:10;;;;;;;5.35;3.42;;;27.20;99.90;;;;;;1976252;71;21107;-81
2022/07/20 01:41:41;;;;;;;6.90;3.22;;;27.30;99.90;;;;;;1982073;71;21221;-81
2022/07/20 01:44:15;;;;;;;4.87;3.12;;;27.30;99.90;;;;;;1980918;71;21140;-80
2022/07/20 01:46:51;;;;;;;5.42;3.40;;;27.30;99.90;;;;;;1979159;70;21187;-82
2022/07/20 01:49:28;;;;;;;6.83;3.45;;;27.30;99.90;;;;;;1982829;71;21233;-79
2022/07/20 01:52:01;;;;;;;4.85;3.77;;;27.30;99.90;;;;;;1982412;71;21179;-82
2022/07/20 01:54:32;;;;;;;4.78;3.25;;;27.30;99.90;;;;;;1982708;71;21198;-81
2022/07/20 01:57:04;;;;;;;6.78;3.55;;;27.30;99.90;;;;;;1981516;70;21114;-80
2022/07/20 01:59:35;;;;;;;7.37;3.75;;;27.30;99.90;;;;;;1991814;71;21249;-81
2022/07/20 02:02:05;;;;;;;6.80;4.97;;;27.40;99.90;;;;;;1980886;71;21173;-82
2022/07/20 02:04:37;;;;;;;8.48;4.80;;;27.40;99.90;;;;;;1978159;71;21560;-81
2022/07/20 02:07:08;;;;;;;9.10;4.87;;;27.40;99.90;;;;;;1986152;71;21160;-81
2022/07/20 02:09:39;;;;;;;8.08;4.62;;;27.40;99.90;;;;;;1984475;71;21104;-82
2022/07/20 02:12:10;;;;;;;7.30;5.42;;;27.40;99.90;;;;;;1982359;71;21076;-82
2022/07/20 02:15:07;;;;;;;8.63;4.40;;;27.40;99.90;;;;;;1979417;71;21429;-82
2022/07/20 02:17:39;;;;;;;6.78;4.25;;;27.40;99.90;;;;;;1979298;71;21702;-82
2022/07/20 02:20:11;;;;;;;7.10;4.90;;;27.40;99.90;;;;;;1948273;71;21386;-82
2022/07/20 02:22:41;;;;;;;13.40;5.20;;;27.50;99.90;;;;;;1968991;71;21069;-82
2022/07/20 02:25:15;;;;;;;7.67;5.80;;;27.50;99.90;;;;;;1976716;72;21096;-82
2022/07/20 02:27:46;;;;;;;9.58;6.08;;;27.50;99.90;;;;;;1980372;70;21178;-82
2022/07/20 02:30:17;;;;;;;12.35;6.97;;;27.50;99.90;;;;;;1945034;72;21795;-71
2022/07/20 02:32:48;;;;;;;10.28;7.87;;;27.50;99.90;;;;;;1984810;70;21131;-79
2022/07/20 02:35:19;;;;;;;13.38;8.20;;;27.50;99.90;;;;;;1974359;70;21198;-81
2022/07/20 02:37:50;;;;;;;10.72;8.40;;;27.50;99.90;;;;;;1987575;71;22203;-78
2022/07/20 02:40:21;;;;;;;12.03;8.05;;;27.50;99.90;;;;;;1945307;72;21169;-79
2022/07/20 02:42:52;;;;;;;8.93;6.20;;;27.50;99.90;;;;;;1935917;73;21533;-81
2022/07/20 02:45:23;;;;;;;9.73;5.90;;;27.50;99.90;;;;;;1974973;70;21245;-80
2022/07/20 02:47:58;;;;;;;8.50;5.53;;;27.50;99.90;;;;;;1990391;71;21139;-82
2022/07/20 02:50:26;;;;;;;9.00;5.05;;;27.50;99.90;;;;;;1982057;71;21633;-80
2022/07/20 02:52:57;;;;;;;8.00;5.50;;;27.50;99.90;;;;;;1977038;70;21049;-79
2022/07/20 02:55:30;;;;;;;9.08;6.75;;;27.50;99.90;;;;;;1984032;71;21111;-80
2022/07/20 02:58:03;;;;;;;6.85;4.95;;;27.50;99.90;;;;;;1997527;71;21607;-80
2022/07/20 03:00:36;;;;;;;7.10;5.08;;;27.50;99.90;;;;;;1981334;71;22170;-81
2022/07/20 03:03:08;;;;;;;8.33;4.87;;;27.40;99.90;;;;;;1972400;71;21107;-80
2022/07/20 03:05:39;;;;;;;6.90;4.30;;;27.50;99.90;;;;;;1979196;71;21172;-80
2022/07/20 03:08:10;;;;;;;6.95;4.70;;;27.50;99.90;;;;;;1979520;71;21708;-79
2022/07/20 03:10:42;;;;;;;9.60;4.47;;;27.50;99.90;;;;;;2002722;71;21665;-80
2022/07/20 03:13:13;;;;;;;6.60;5.15;;;27.40;99.90;;;;;;1987462;71;21147;-80
2022/07/20 03:15:44;;;;;;;6.90;4.50;;;27.40;99.90;;;;;;1982449;70;21135;-80
2022/07/20 03:18:15;;;;;;;7.33;4.60;;;27.40;99.90;;;;;;1978993;71;21162;-81
2022/07/20 03:20:46;;;;;;;7.95;4.47;;;27.40;99.90;;;;;;1981628;71;21159;-82
2022/07/20 03:23:17;;;;;;;8.63;4.80;;;27.40;99.90;;;;;;1981157;71;21512;-80
2022/07/20 03:25:48;;;;;;;8.38;4.80;;;27.40;99.90;;;;;;1973655;72;22205;-80
2022/07/20 03:28:19;;;;;;;8.80;5.05;;;27.40;99.90;;;;;;1985083;71;21157;-81
2022/07/20 03:30:50;;;;;;;10.03;5.28;;;27.40;99.90;;;;;;1981803;71;21073;-80
2022/07/20 03:33:21;;;;;;;8.28;5.25;;;27.40;99.90;;;;;;1941749;73;21245;-79
2022/07/20 03:35:52;;;;;;;10.10;5.95;;;27.40;99.90;;;;;;1981883;70;21124;-81
2022/07/20 03:38:23;;;;;;;9.23;7.55;;;27.40;99.90;;;;;;1984902;70;21065;-80
2022/07/20 03:40:54;;;;;;;12.43;10.45;;;27.50;99.90;;;;;;1976664;71;21221;-78
2022/07/20 03:43:26;;;;;;;10.58;9.45;;;27.50;99.90;;;;;;1972052;71;21108;-79
2022/07/20 03:45:56;;;;;;;14.58;10.18;;;27.40;99.90;;;;;;1992376;71;21088;-81
2022/07/20 03:48:27;;;;;;;13.22;9.63;;;27.40;99.90;;;;;;1980523;71;21077;-79
2022/07/20 03:50:59;;;;;;;15.90;14.30;;;27.40;99.90;;;;;;1941607;73;21077;-80
2022/07/20 03:53:30;;;;;;;16.67;12.73;;;27.40;99.90;;;;;;1975042;71;21089;-80
2022/07/20 03:56:02;;;;;;;15.48;10.88;;;27.50;99.90;;;;;;1972669;71;21171;-79
2022/07/20 03:58:33;;;;;;;12.05;10.32;;;27.50;99.90;;;;;;1982486;71;21104;-78
2022/07/20 04:01:04;;;;;;;12.82;11.53;;;27.50;99.90;;;;;;1971562;71;21045;-80
2022/07/20 04:03:35;;;;;;;13.90;10.60;;;27.60;99.90;;;;;;1967608;71;21190;-79
2022/07/20 04:06:06;;;;;;;13.85;10.20;;;27.60;99.90;;;;;;1982284;71;21186;-80
2022/07/20 04:08:37;;;;;;;11.57;9.70;;;27.60;99.90;;;;;;1986661;71;21619;-79
2022/07/20 04:11:08;;;;;;;12.05;9.03;;;27.70;99.90;;;;;;1983361;71;21045;-80
2022/07/20 04:13:38;;;;;;;11.45;8.30;;;27.80;99.90;;;;;;1936604;72;21184;-81
2022/07/20 04:16:10;;;;;;;10.23;8.80;;;27.90;99.90;;;;;;1960968;72;21140;-81
2022/07/20 04:18:41;;;;;;;11.80;8.95;;;28.10;99.90;;;;;;1977781;71;21177;-81
2022/07/20 04:21:12;;;;;;;10.32;7.67;;;28.20;99.90;;;;;;1977538;71;21079;-80
2022/07/20 04:23:43;;;;;;;9.68;7.17;;;28.30;99.90;;;;;;1978673;72;21139;-80
2022/07/20 04:26:14;;;;;;;10.10;7.42;;;28.40;99.90;;;;;;1972556;71;21231;-80
2022/07/20 04:28:45;;;;;;;10.32;6.78;;;28.60;99.90;;;;;;1977530;71;21237;-81
2022/07/20 04:31:16;;;;;;;9.70;6.80;;;28.70;99.90;;;;;;1933136;73;22592;-81
2022/07/20 04:33:48;;;;;;;7.20;6.45;;;28.80;99.90;;;;;;1901362;74;21140;-82
2022/07/20 04:36:19;;;;;;;11.10;6.60;;;28.80;99.90;;;;;;1972126;71;21150;-81
2022/07/20 04:38:50;;;;;;;7.62;6.45;;;28.80;99.90;;;;;;1978876;70;21382;-81
2022/07/20 04:41:21;;;;;;;11.97;6.22;;;28.80;99.90;;;;;;1972148;71;21678;-83
2022/07/20 04:43:52;;;;;;;8.23;5.72;;;28.80;99.90;;;;;;1915036;74;21160;-81
2022/07/20 04:46:23;;;;;;;9.78;6.78;;;28.80;99.90;;;;;;1973184;71;21527;-81
2022/07/20 04:48:54;;;;;;;12.68;6.85;;;28.80;99.90;;;;;;1937362;73;21093;-82
2022/07/20 04:51:26;;;;;;;11.03;6.10;;;28.80;99.90;;;;;;1980058;71;21534;-80
2022/07/20 04:53:57;;;;;;;11.30;6.60;;;28.70;99.90;;;;;;1975722;71;21096;-83
2022/07/20 04:56:32;;;;;;;9.65;5.72;;;28.80;99.90;;;;;;1968026;71;21096;-81
2022/07/20 04:59:03;;;;;;;11.40;5.30;;;28.80;99.90;;;;;;1927566;73;21090;-81
2022/07/20 05:01:34;;;;;;;10.98;5.65;;;28.90;99.90;;;;;;1978616;71;21225;-81
2022/07/20 05:04:05;;;;;;;10.90;5.30;;;29.00;99.90;;;;;;1977369;71;21123;-81
2022/07/20 05:06:37;;;;;;;7.62;5.20;;;29.10;99.90;;;;;;1980243;71;21622;-81
2022/07/20 05:09:10;;;;;;;8.70;4.83;;;29.20;99.90;;;;;;1975869;71;21120;-80
2022/07/20 05:11:41;;;;;;;12.15;5.58;;;29.20;99.90;;;;;;1986779;71;21112;-80
2022/07/20 05:14:12;;;;;;;7.55;4.90;;;29.30;99.90;;;;;;1937932;72;21149;-82
2022/07/20 05:16:43;;;;;;;14.87;5.78;;;29.30;99.90;;;;;;1973928;71;21192;-83
2022/07/20 05:19:14;;;;;;;43.40;8.45;;;29.30;99.70;;;;;;1995874;71;21100;-81
2022/07/20 05:21:46;;;;;;;10.28;5.45;;;29.40;99.50;;;;;;1978210;72;21185;-81
2022/07/20 05:24:17;;;;;;;65.28;10.25;;;29.50;99.90;;;;;;1967567;71;21134;-80
2022/07/20 05:26:48;;;;;;;9.20;5.10;;;29.50;99.50;;;;;;1992413;70;21139;-81
2022/07/20 05:29:24;;;;;;;11.35;5.00;;;29.60;99.30;;;;;;1972627;70;21100;-81
2022/07/20 05:31:55;;;;;;;9.88;5.12;;;29.50;99.20;;;;;;1988495;70;21376;-82
2022/07/20 05:34:26;;;;;;;6.75;5.08;;;29.50;99.30;;;;;;1972623;71;21140;-81
2022/07/20 05:36:57;;;;;;;8.63;5.45;;;29.50;99.50;;;;;;1991538;70;21085;-81
2022/07/20 05:39:28;;;;;;;7.30;5.30;;;29.50;99.60;;;;;;1905031;74;21374;-80
2022/07/20 05:41:59;;;;;;;6.67;5.08;;;29.60;99.70;;;;;;1988004;71;21061;-82
2022/07/20 05:44:29;;;;;;;6.80;5.00;;;29.60;99.70;;;;;;1915351;74;21074;-82
2022/07/20 05:47:01;;;;;;;6.92;4.65;;;29.70;99.30;;;;;;1984836;70;21116;-82
2022/07/20 05:49:32;;;;;;;6.42;5.08;;;29.70;99.20;;;;;;1981514;71;21549;-81
2022/07/20 05:52:04;;;;;;;6.25;4.45;;;29.80;99.20;;;;;;1975826;71;21088;-81
2022/07/20 05:54:35;;;;;;;7.22;4.70;;;29.80;98.70;;;;;;1975883;71;21598;-81
2022/07/20 05:57:06;;;;;;;8.95;4.53;;;29.80;99.00;;;;;;2002338;71;21186;-82
2022/07/20 05:59:39;;;;;;;8.93;4.65;;;29.80;98.80;;;;;;1964138;71;21101;-82
2022/07/20 06:02:10;;;;;;;7.33;4.65;;;29.90;99.00;;;;;;1907302;73;21775;-81
2022/07/20 06:04:41;;;;;;;5.70;4.35;;;30.00;98.70;;;;;;1899251;73;21656;-81
2022/07/20 06:07:13;;;;;;;8.05;4.40;;;30.10;98.30;;;;;;1979350;71;21603;-83
2022/07/20 06:09:43;;;;;;;5.78;4.58;;;30.20;98.20;;;;;;1995679;71;21108;-81
2022/07/20 06:12:15;;;;;;;9.30;4.17;;;30.30;98.80;;;;;;1977341;71;21512;-81
2022/07/20 06:14:46;;;;;;;6.28;4.28;;;30.40;98.20;;;;;;1977088;71;21209;-81
2022/07/20 06:17:17;;;;;;;6.50;4.20;;;30.50;97.60;;;;;;1936661;73;21731;-81
2022/07/20 06:19:48;;;;;;;8.13;4.60;;;30.50;97.70;;;;;;1904246;74;21095;-81
2022/07/20 06:22:19;;;;;;;7.85;4.10;;;30.40;97.70;;;;;;1971140;71;21142;-82
2022/07/20 06:24:50;;;;;;;5.65;4.00;;;30.30;97.70;;;;;;1900263;74;21672;-80
2022/07/20 06:27:22;;;;;;;9.15;4.53;;;30.40;97.80;;;;;;1979649;71;21234;-81
2022/07/20 06:29:54;;;;;;;7.25;3.95;;;30.30;97.70;;;;;;1973989;71;21559;-81
2022/07/20 06:32:27;;;;;;;7.30;4.22;;;30.30;97.90;;;;;;1970880;71;21190;-80
2022/07/20 06:34:58;;;;;;;5.60;4.05;;;30.30;98.00;;;;;;1980286;70;21168;-81
2022/07/20 06:37:29;;;;;;;8.58;4.08;;;30.30;97.80;;;;;;1978053;71;21096;-81
2022/07/20 06:40:00;;;;;;;7.85;4.03;;;30.40;97.90;;;;;;1987358;71;21470;-80
2022/07/20 06:42:31;;;;;;;6.33;4.12;;;30.50;97.50;;;;;;1990504;71;21142;-82
2022/07/20 06:45:03;;;;;;;7.50;4.50;;;30.50;97.70;;;;;;1983341;71;21124;-81
2022/07/20 06:47:35;;;;;;;7.30;4.45;;;30.60;97.60;;;;;;1974275;71;21126;-82
2022/07/20 06:50:07;;;;;;;5.40;4.17;;;30.60;97.70;;;;;;1974265;71;21045;-81
2022/07/20 06:52:38;;;;;;;7.12;4.10;;;30.80;97.20;;;;;;1971035;71;21127;-81
2022/07/20 06:55:09;;;;;;;6.35;3.52;;;30.80;96.90;;;;;;1968802;71;21053;-81
2022/07/20 06:57:40;;;;;;;6.60;4.17;;;30.80;96.70;;;;;;1972073;71;21241;-80
2022/07/20 07:00:14;;;;;;;7.05;4.30;;;30.90;96.70;;;;;;1972580;71;21569;-80
2022/07/20 07:02:46;;;;;;;;;;;30.80;96.80;;;;;;1978286;71;21112;-81
2022/07/20 07:05:27;;;;;;;5.15;4.08;;;30.80;97.10;;;;;;1940963;73;20174;-81
2022/07/20 07:07:54;;;;;;;8.50;4.42;;;30.80;96.80;;;;;;1961014;71;21162;-82
2022/07/20 07:10:25;;;;;;;4.83;3.60;;;30.70;96.50;;;;;;1983084;71;21134;-81
2022/07/20 07:13:02;;;;;;;6.45;4.05;;;30.70;96.60;;;;;;1980952;71;21139;-82
2022/07/20 07:15:33;;;;;;;4.70;3.70;;;30.80;96.10;;;;;;1977719;71;21079;-81
2022/07/20 07:18:04;;;;;;;6.62;4.12;;;30.70;96.50;;;;;;1985134;71;21123;-81
2022/07/20 07:20:35;;;;;;;4.83;3.62;;;30.80;96.20;;;;;;1969581;71;21069;-81
2022/07/20 07:23:07;;;;;;;7.90;3.80;;;30.80;96.40;;;;;;1987881;71;21104;-80
2022/07/20 07:25:38;;;;;;;4.58;3.37;;;30.90;95.80;;;;;;1994479;71;21108;-81
2022/07/20 07:28:09;;;;;;;9.85;3.98;;;31.10;95.70;;;;;;1970214;71;21556;-83
2022/07/20 07:30:50;;;;;;;6.03;3.65;;;31.10;96.60;;;;;;1976837;71;21658;-82
2022/07/20 07:33:25;;;;;;;6.92;4.08;;;31.20;96.20;;;;;;1980817;71;21171;-80
2022/07/20 07:35:55;;;;;;;5.33;3.50;;;31.20;95.60;;;;;;1975008;71;21187;-80
2022/07/20 07:38:26;;;;;;;6.58;4.30;;;31.30;95.40;;;;;;1976439;71;21089;-82
2022/07/20 07:40:57;;;;;;;4.90;3.45;;;31.30;96.20;;;;;;1977624;71;21704;-81
2022/07/20 07:43:37;;;;;;;4.30;3.20;;;31.30;95.10;;;;;;1982044;71;21128;-81
2022/07/20 07:46:38;;;;;;;5.20;3.37;;;31.20;95.20;;;;;;1976339;71;21064;-81
2022/07/20 07:49:06;;;;;;;7.47;3.70;;;31.20;95.40;;;;;;1864606;75;21625;-82
2022/07/20 07:51:38;;;;;;;7.83;4.20;;;31.20;95.20;;;;;;1978875;71;21110;-81
2022/07/20 07:54:10;;;;;;;7.60;3.80;;;31.20;95.20;;;;;;1978022;71;21599;-82
2022/07/20 07:56:41;;;;;;;9.00;3.92;;;31.20;95.70;;;;;;1981945;71;21105;-80
2022/07/20 07:59:12;;;;;;;5.00;3.72;;;31.20;95.60;;;;;;1980817;71;21069;-81
2022/07/20 08:01:44;;;;;;;5.33;3.90;;;31.10;95.50;;;;;;1890481;75;21199;-82
2022/07/20 08:04:16;;;;;;;6.35;3.83;;;31.10;95.90;;;;;;1984633;71;21642;-81
2022/07/20 08:06:49;;;;;;;7.05;3.65;;;31.20;95.60;;;;;;1994610;71;21161;-80
2022/07/20 08:09:19;;;;;;;9.53;4.22;;;31.10;95.90;;;;;;1974526;71;21181;-81
2022/07/20 08:11:54;;;;;;;5.33;3.62;;;31.10;96.30;;;;;;1979170;71;21035;-82
2022/07/20 08:14:26;;;;;;;4.85;3.77;;;31.10;96.50;;;;;;1967595;72;21059;-84
2022/07/20 08:16:57;;;;;;;5.97;3.80;;;31.00;96.20;;;;;;1973411;72;21393;-81
2022/07/20 08:19:28;;;;;;;7.20;3.80;;;31.00;95.70;;;;;;1992034;72;21112;-81
2022/07/20 08:21:59;;;;;;;5.45;3.77;;;30.90;95.90;;;;;;1991124;71;21559;-82
2022/07/20 08:24:30;;;;;;;4.95;4.00;;;30.90;95.90;;;;;;1978440;72;21186;-80
2022/07/20 08:27:01;;;;;;;6.37;3.75;;;30.90;96.30;;;;;;1986245;71;21127;-81
2022/07/20 08:29:32;;;;;;;6.85;3.80;;;30.90;96.00;;;;;;1968899;71;21495;-80
2022/07/20 08:32:04;;;;;;;5.78;3.98;;;30.90;95.90;;;;;;1909050;75;21100;-80
2022/07/20 08:34:35;;;;;;;6.58;3.70;;;30.90;95.90;;;;;;1934289;73;21127;-81
2022/07/20 08:37:06;;;;;;;4.28;3.65;;;30.90;95.90;;;;;;1970976;71;21087;-80
2022/07/20 08:39:38;;;;;;;6.85;4.15;;;30.90;96.00;;;;;;1981053;71;21126;-79
2022/07/20 08:42:11;;;;;;;6.33;3.67;;;30.90;95.80;;;;;;1987566;71;21120;-81
2022/07/20 08:44:43;;;;;;;7.90;4.97;;;30.90;95.80;;;;;;1978722;71;21774;-82
2022/07/20 08:47:16;;;;;;;6.33;4.00;;;30.90;95.80;;;;;;1972174;71;21120;-80
2022/07/20 08:49:50;;;;;;;7.75;4.12;;;30.90;96.00;;;;;;1974330;72;21178;-82
2022/07/20 08:52:21;;;;;;;5.85;4.00;;;30.90;96.10;;;;;;1975459;71;21468;-82
2022/07/20 08:54:52;;;;;;;10.60;4.72;;;31.00;95.70;;;;;;1974482;71;21181;-82
2022/07/20 08:57:25;;;;;;;7.55;4.08;;;30.90;95.90;;;;;;1981288;71;21396;-81
2022/07/20 08:59:55;;;;;;;4.75;3.60;;;31.00;95.70;;;;;;1989039;71;21097;-81
2022/07/20 09:02:27;;;;;;;7.58;3.50;;;30.90;95.50;;;;;;1970144;71;21128;-82
2022/07/20 09:05:01;;;;;;;5.95;2.85;;;30.90;95.70;;;;;;1983618;71;21666;-80
2022/07/20 09:07:34;;;;;;;5.53;3.37;;;30.90;95.00;;;;;;1990495;71;21894;-84
2022/07/20 09:10:08;;;;;;;6.15;3.62;;;30.90;95.40;;;;;;1975922;71;21098;-81
2022/07/20 09:12:43;;;;;;;7.30;3.70;;;30.80;95.30;;;;;;1972049;71;21710;-81
2022/07/20 09:15:16;;;;;;;6.47;3.62;;;30.90;95.30;;;;;;1962314;72;21168;-81
2022/07/20 09:17:47;;;;;;;7.65;3.65;;;30.90;95.30;;;;;;1966521;71;21167;-82
2022/07/20 09:20:18;;;;;;;5.58;3.05;;;30.90;95.50;;;;;;1968615;72;21152;-83
2022/07/20 09:22:50;;;;;;;6.72;4.05;;;30.90;95.60;;;;;;1973240;71;21213;-80
2022/07/20 09:25:23;;;;;;;8.80;4.17;;;30.80;95.50;;;;;;1987626;71;21162;-80
2022/07/20 09:27:55;;;;;;;5.87;3.50;;;30.80;95.30;;;;;;1976515;71;21049;-81
2022/07/20 09:30:27;;;;;;;6.25;3.58;;;30.80;95.50;;;;;;1967112;71;21507;-81
2022/07/20 09:33:00;;;;;;;4.70;3.37;;;30.90;95.50;;;;;;1992438;71;21213;-81
2022/07/20 09:35:34;;;;;;;6.45;3.83;;;30.90;95.50;;;;;;1910590;75;21229;-79
2022/07/20 09:38:08;;;;;;;7.40;4.12;;;30.90;95.50;;;;;;1966970;71;21587;-76
2022/07/20 09:40:41;;;;;;;7.15;4.17;;;31.00;95.30;;;;;;1910154;73;21629;-76
2022/07/20 09:43:14;;;;;;;7.80;4.00;;;31.00;95.40;;;;;;1972472;71;21182;-77
2022/07/20 09:45:49;;;;;;;5.67;4.08;;;31.10;95.40;;;;;;1966931;71;21036;-77
2022/07/20 09:48:24;;;;;;;5.72;3.60;;;31.00;95.50;;;;;;1940746;72;21151;-75
2022/07/20 09:50:55;;;;;;;6.65;4.22;;;31.10;95.60;;;;;;1972604;71;21179;-76
2022/07/20 09:53:26;;;;;;;5.35;4.10;;;31.10;95.60;;;;;;1984417;71;21548;-75
2022/07/20 09:55:58;;;;;;;6.55;3.67;;;31.10;95.60;;;;;;1982716;71;21128;-79
2022/07/20 09:58:30;;;;;;;5.10;3.80;;;31.10;95.60;;;;;;1968650;71;21129;-76
2022/07/20 10:01:03;;;;;;;5.92;3.42;;;31.00;95.60;;;;;;1980496;71;21568;-76
2022/07/20 10:03:35;;;;;;;6.97;3.10;;;31.00;95.50;;;;;;1979486;71;21155;-78
2022/07/20 10:06:06;;;;;;;5.17;3.12;;;30.90;95.50;;;;;;1973464;71;21213;-77
2022/07/20 10:08:38;;;;;;;6.72;4.30;;;30.90;95.50;;;;;;1978463;71;21139;-76
2022/07/20 10:11:10;;;;;;;6.40;4.08;;;30.90;95.50;;;;;;1984644;71;21108;-77
2022/07/20 10:13:52;;;;;;;4.87;3.50;;;30.90;95.60;;;;;;1976948;71;21551;-77
2022/07/20 10:16:35;;;;;;;7.72;3.70;;;30.90;95.60;;;;;;1979534;71;21407;-75
2022/07/20 10:19:28;;;;;;;4.45;3.20;;;30.90;95.60;;;;;;1981234;71;21200;-76
2022/07/20 10:22:24;;;;;;;5.92;4.20;;;30.90;95.70;;;;;;1852263;76;21236;-76
2022/07/20 10:24:57;;;;;;;6.65;3.65;;;30.90;95.80;;;;;;1855857;76;21142;-76
2022/07/20 10:27:29;;;;;;;6.30;3.25;;;30.90;95.90;;;;;;1856923;76;21798;-76
2022/07/20 10:30:02;;;;;;;7.87;4.00;;;30.80;95.90;;;;;;1778013;78;21176;-77
2022/07/20 10:32:33;;;;;;;5.65;3.72;;;30.80;95.80;;;;;;1853920;76;21127;-76
2022/07/20 10:35:07;;;;;;;8.08;3.65;;;30.80;95.70;;;;;;1855238;76;21189;-74
2022/07/20 10:37:40;;;;;;;6.25;3.50;;;30.70;95.70;;;;;;1843852;75;21084;-76
2022/07/20 10:40:14;;;;;;;6.58;3.20;;;30.70;95.60;;;;;;1850347;76;21707;-76
2022/07/20 10:42:47;;;;;;;4.80;3.02;;;30.70;95.60;;;;;;1855050;76;21170;-76
2022/07/20 10:45:23;;;;;;;6.55;3.58;;;30.70;95.60;;;;;;1867746;75;21336;-76
2022/07/20 10:47:56;;;;;;;4.87;2.80;;;30.70;95.70;;;;;;1879111;76;21201;-77
2022/07/20 10:50:31;;;;;;;6.22;3.50;;;30.70;95.90;;;;;;1866542;75;21197;-77
2022/07/20 10:53:07;;;;;;;6.58;3.77;;;30.60;95.90;;;;;;1856363;76;21138;-77
2022/07/20 10:55:42;;;;;;;7.42;3.87;;;30.60;95.90;;;;;;1823664;76;21093;-76
2022/07/20 10:58:16;;;;;;;7.08;3.90;;;30.60;96.00;;;;;;1861139;75;21582;-76
2022/07/20 11:00:49;;;;;;;7.55;3.50;;;30.60;96.20;;;;;;1859513;75;21643;-76
2022/07/20 11:03:29;;;;;;;8.13;4.37;;;30.60;96.40;;;;;;1852668;76;21645;-76
2022/07/20 11:05:59;;;;;;;8.40;4.12;;;30.60;96.60;;;;;;1854843;76;21594;-75
2022/07/20 11:08:30;;;;;;;5.67;3.80;;;30.60;96.80;;;;;;1852374;76;21178;-76
2022/07/20 11:11:03;;;;;;;6.42;3.90;;;30.60;96.90;;;;;;1860415;74;21260;-76
2022/07/20 11:13:34;;;;;;;7.12;4.35;;;30.50;96.90;;;;;;1855302;76;21080;-75
2022/07/20 11:16:06;;;;;;;7.42;4.55;;;30.50;97.10;;;;;;1858065;76;21261;-75
2022/07/20 11:18:38;;;;;;;9.95;7.28;;;30.50;97.20;;;;;;1857854;75;21456;-76
2022/07/20 11:21:14;;;;;;;10.75;4.53;;;30.40;97.20;;;;;;1850148;75;21264;-74
2022/07/20 11:23:46;;;;;;;6.50;4.15;;;30.40;97.20;;;;;;1853386;76;21264;-76
2022/07/20 11:26:20;;;;;;;6.62;5.53;;;30.40;97.10;;;;;;1856551;76;21819;-76
2022/07/20 11:28:53;;;;;;;6.70;4.20;;;30.40;97.30;;;;;;1862273;75;21191;-76
2022/07/20 11:31:28;;;;;;;9.43;4.85;;;30.40;97.40;;;;;;1864750;75;21120;-76
2022/07/20 11:34:00;;;;;;;10.30;5.33;;;30.40;97.40;;;;;;1849357;76;21112;-76
2022/07/20 11:36:37;;;;;;;7.95;4.75;;;30.30;97.50;;;;;;1870220;75;21729;-78
2022/07/20 11:39:09;;;;;;;10.80;4.42;;;30.30;97.50;;;;;;1862309;75;21650;-79
2022/07/20 11:41:43;;;;;;;7.58;4.17;;;30.30;97.60;;;;;;1867753;76;21157;-79
2022/07/20 11:44:18;;;;;;;7.72;4.20;;;30.30;97.60;;;;;;1858165;75;21813;-80
2022/07/20 11:46:49;;;;;;;6.20;4.00;;;30.30;97.60;;;;;;1866927;75;21133;-80
2022/07/20 11:49:20;;;;;;;7.97;4.47;;;30.30;97.60;;;;;;1857148;76;21135;-80
2022/07/20 11:51:55;;;;;;;8.03;4.92;;;30.20;97.70;;;;;;1872068;76;21150;-79
2022/07/20 11:54:37;;;;;;;9.80;4.70;;;30.20;97.70;;;;;;1850822;76;21587;-81
2022/07/20 11:57:07;;;;;;;11.28;5.12;;;30.30;97.80;;;;;;1846013;75;21236;-79
2022/07/20 11:59:40;;;;;;;6.97;4.25;;;30.20;97.80;;;;;;1866682;75;21131;-81
2022/07/20 12:02:13;;;;;;;7.83;4.97;;;30.20;97.80;;;;;;1837642;77;21139;-80
2022/07/20 12:04:44;;;;;;;8.10;5.30;;;30.20;97.90;;;;;;1839723;77;21203;-79
2022/07/20 12:09:48;;;;;;;9.43;5.25;;;30.20;97.90;;;;;;1840020;76;21168;-80
2022/07/20 12:13:04;;;;;;;11.30;5.22;;;30.20;97.90;;;;;;1857506;75;21791;-79
2022/07/20 12:14:54;;;;;;;9.55;5.53;;;30.10;98.00;;;;;;1862121;76;21127;-79
2022/07/20 12:17:30;;;;;;;9.23;5.15;;;30.10;98.00;;;;;;1858470;75;21630;-80
2022/07/20 12:20:01;;;;;;;9.98;5.60;;;30.10;97.90;;;;;;1828943;76;21244;-79
2022/07/20 12:22:36;;;;;;;10.37;5.50;;;30.10;98.00;;;;;;1859355;76;21127;-80
2022/07/20 12:25:10;;;;;;;8.78;5.15;;;30.10;98.00;;;;;;1834694;75;21092;-80
2022/07/20 12:27:42;;;;;;;7.55;4.87;;;30.10;98.10;;;;;;1862887;75;21561;-79
2022/07/20 12:30:15;;;;;;;7.28;4.90;;;30.10;98.10;;;;;;1861964;76;21160;-79
2022/07/20 12:32:46;;;;;;;9.05;5.08;;;30.10;98.20;;;;;;1867062;75;21851;-80
2022/07/20 12:35:20;;;;;;;10.05;5.92;;;30.10;98.20;;;;;;1785485;78;21620;-79
2022/07/20 12:38:02;;;;;;;8.50;5.60;;;30.10;98.30;;;;;;1850842;76;21174;-79
2022/07/20 12:40:37;;;;;;;10.38;6.08;;;30.10;98.40;;;;;;1855210;76;21155;-78
2022/07/20 12:43:11;;;;;;;8.93;5.80;;;30.10;98.50;;;;;;1848808;75;21127;-79
2022/07/20 12:45:42;;;;;;;8.95;5.70;;;30.00;98.50;;;;;;1820644;77;21125;-80
2022/07/20 12:48:14;;;;;;;10.43;5.60;;;30.10;98.60;;;;;;1782326;79;21703;-81
2022/07/20 12:50:46;;;;;;;7.55;5.60;;;30.00;98.50;;;;;;1826018;77;21155;-82
2022/07/20 12:53:17;;;;;;;6.10;5.47;;;30.10;98.50;;;;;;1792959;79;21222;-80
2022/07/20 12:55:48;;;;;;;9.70;5.70;;;30.10;98.60;;;;;;1785888;79;21139;-79
2022/07/20 12:58:19;;;;;;;8.55;5.78;;;30.00;98.70;;;;;;1815539;78;21150;-83
2022/07/20 13:00:50;;;;;;;11.93;5.55;;;30.10;98.70;;;;;;1817170;77;21588;-80
2022/07/20 13:03:21;;;;;;;9.25;6.20;;;30.00;98.60;;;;;;1803699;77;21671;-80
2022/07/20 13:05:52;;;;;;;8.58;5.67;;;30.00;98.60;;;;;;1855133;76;21111;-80
2022/07/20 13:08:24;;;;;;;10.72;6.85;;;30.00;98.70;;;;;;1849966;76;21648;-80
2022/07/20 13:10:56;;;;;;;9.23;5.72;;;30.00;98.70;;;;;;1849803;76;21083;-80
2022/07/20 13:13:27;;;;;;;9.95;6.33;;;30.00;98.80;;;;;;1847459;75;21174;-80
2022/07/20 13:15:58;;;;;;;7.62;6.03;;;30.00;98.70;;;;;;1813395;78;21617;-79